createdAt,value
2022-10-19T00:00:21.242Z,5.57
2022-10-19T00:02:51.825Z,5.47
2022-10-19T00:05:22.611Z,5.47
2022-10-19T00:07:54.871Z,5.65
2022-10-19T00:10:25.668Z,5.53
2022-10-19T00:12:56.299Z,6.65
2022-10-19T00:15:29.503Z,5.47
2022-10-19T00:18:00.049Z,5.38
2022-10-19T00:20:30.626Z,5.78
2022-10-19T00:23:01.220Z,7.43
2022-10-19T00:25:32.242Z,7.05
2022-10-19T00:28:03.533Z,8.23
2022-10-19T00:30:40.028Z,10.25
2022-10-19T00:33:10.619Z,8.00
2022-10-19T00:35:44.129Z,5.65
2022-10-19T00:38:14.722Z,4.75
2022-10-19T00:40:45.331Z,7.85
2022-10-19T00:43:18.329Z,6.03
2022-10-19T00:45:51.932Z,4.63
2022-10-19T00:48:26.865Z,3.78
2022-10-19T00:51:00.361Z,4.85
2022-10-19T00:53:33.647Z,4.70
2022-10-19T00:56:08.538Z,4.15
2022-10-19T00:58:39.559Z,4.25
2022-10-19T01:01:16.234Z,4.13
2022-10-19T01:03:47.469Z,4.32
2022-10-19T01:06:20.997Z,3.92
2022-10-19T01:08:51.557Z,4.00
2022-10-19T01:11:34.530Z,3.85
2022-10-19T01:14:21.271Z,3.80
2022-10-19T01:17:05.749Z,3.92
2022-10-19T01:20:03.482Z,4.47
2022-10-19T01:22:49.043Z,5.00
2022-10-19T01:25:26.033Z,4.82
2022-10-19T01:28:12.797Z,4.28
2022-10-19T01:30:56.105Z,5.25
2022-10-19T01:33:47.283Z,4.03
2022-10-19T01:36:26.503Z,4.85
2022-10-19T01:39:05.444Z,4.13
2022-10-19T01:41:46.558Z,4.32
2022-10-19T01:44:22.102Z,4.55
2022-10-19T01:49:34.318Z,3.72
2022-10-19T01:52:08.303Z,3.70
2022-10-19T01:54:44.659Z,4.10
2022-10-19T01:57:20.253Z,3.60
2022-10-19T02:02:27.178Z,4.55
2022-10-19T02:07:31.759Z,3.83
2022-10-19T02:10:02.457Z,4.22
2022-10-19T02:12:36.090Z,4.00
2022-10-19T02:15:14.788Z,4.07
2022-10-19T02:17:52.191Z,4.85
2022-10-19T02:20:24.216Z,3.53
2022-10-19T02:22:54.796Z,3.85
2022-10-19T02:25:26.242Z,4.45
2022-10-19T02:27:56.899Z,4.45
2022-10-19T02:30:27.721Z,3.88
2022-10-19T02:33:00.871Z,4.50
2022-10-19T02:35:31.625Z,4.35
2022-10-19T02:38:05.289Z,4.68
2022-10-19T02:40:39.756Z,3.85
2022-10-19T02:43:19.336Z,4.70
2022-10-19T02:45:57.954Z,4.13
2022-10-19T02:48:35.099Z,4.35
2022-10-19T02:51:05.777Z,4.38
2022-10-19T02:53:36.315Z,4.00
2022-10-19T02:56:07.227Z,3.72
2022-10-19T02:58:37.773Z,4.40
2022-10-19T03:01:08.570Z,4.70
2022-10-19T03:03:41.807Z,4.78
2022-10-19T03:06:12.597Z,5.72
2022-10-19T03:08:43.188Z,5.40
2022-10-19T03:11:13.737Z,6.68
2022-10-19T03:13:45.285Z,5.20
2022-10-19T03:16:16.990Z,5.68
2022-10-19T03:18:51.144Z,5.28
2022-10-19T03:21:22.066Z,5.75
2022-10-19T03:23:52.623Z,4.35
2022-10-19T03:26:23.364Z,4.43
2022-10-19T03:28:53.973Z,4.13
2022-10-19T03:31:24.723Z,5.15
2022-10-19T03:33:57.895Z,6.32
2022-10-19T03:36:30.225Z,5.47
2022-10-19T03:39:02.679Z,5.55
2022-10-19T03:41:35.708Z,4.97
2022-10-19T03:44:06.914Z,5.75
2022-10-19T03:46:37.961Z,4.95
2022-10-19T03:49:12.057Z,4.22
2022-10-19T03:51:42.567Z,4.82
2022-10-19T03:54:16.796Z,3.72
2022-10-19T03:56:47.566Z,3.42
2022-10-19T03:59:18.533Z,3.78
2022-10-19T04:01:49.673Z,4.10
2022-10-19T04:04:23.486Z,5.07
2022-10-19T04:06:54.312Z,4.10
2022-10-19T04:09:26.252Z,4.20
2022-10-19T04:11:57.149Z,4.38
2022-10-19T04:14:33.206Z,4.25
2022-10-19T04:17:10.473Z,4.10
2022-10-19T04:19:43.907Z,4.65
2022-10-19T04:22:15.024Z,5.03
2022-10-19T04:24:45.731Z,5.60
2022-10-19T04:27:16.449Z,4.85
2022-10-19T04:29:47.213Z,6.10
2022-10-19T04:32:17.854Z,4.85
2022-10-19T04:34:51.000Z,5.68
2022-10-19T04:37:21.507Z,5.40
2022-10-19T04:39:52.005Z,5.47
2022-10-19T04:42:22.526Z,4.47
2022-10-19T04:44:53.010Z,5.25
2022-10-19T04:47:23.514Z,5.15
2022-10-19T04:49:56.635Z,6.20
2022-10-19T04:52:27.263Z,6.50
2022-10-19T04:54:57.794Z,6.68
2022-10-19T04:57:28.263Z,6.13
2022-10-19T04:59:58.778Z,7.90
2022-10-19T05:02:29.269Z,6.63
2022-10-19T05:05:02.475Z,7.85
2022-10-19T05:07:33.758Z,7.68
2022-10-19T05:10:04.819Z,8.50
2022-10-19T05:12:35.613Z,9.88
2022-10-19T05:15:06.645Z,8.32
2022-10-19T05:17:37.281Z,11.15
2022-10-19T05:20:12.191Z,10.90
2022-10-19T05:22:43.058Z,7.23
2022-10-19T05:25:13.587Z,7.78
2022-10-19T05:27:44.092Z,8.35
2022-10-19T05:30:15.088Z,6.30
2022-10-19T05:32:45.602Z,6.55
2022-10-19T05:35:22.361Z,9.13
2022-10-19T05:37:57.386Z,14.55
2022-10-19T05:40:27.904Z,12.20
2022-10-19T05:42:58.419Z,10.95
2022-10-19T05:45:28.928Z,7.80
2022-10-19T05:47:59.486Z,6.45
2022-10-19T05:50:32.625Z,7.03
2022-10-19T05:53:03.130Z,6.10
2022-10-19T05:55:38.550Z,5.68
2022-10-19T05:58:09.068Z,5.50
2022-10-19T06:00:39.651Z,5.43
2022-10-19T06:03:10.154Z,6.35
2022-10-19T06:05:43.551Z,5.40
2022-10-19T06:08:14.149Z,6.28
2022-10-19T06:10:44.735Z,6.38
2022-10-19T06:13:15.886Z,7.05
2022-10-19T06:15:46.404Z,4.55
2022-10-19T06:18:16.989Z,5.78
2022-10-19T06:20:50.171Z,4.50
2022-10-19T06:23:20.967Z,5.22
2022-10-19T06:25:51.437Z,6.00
2022-10-19T06:28:21.971Z,5.30
2022-10-19T06:30:52.559Z,5.55
2022-10-19T06:33:23.086Z,5.78
2022-10-19T06:35:56.582Z,5.45
2022-10-19T06:38:27.155Z,6.40
2022-10-19T06:41:01.856Z,5.60
2022-10-19T06:43:32.384Z,5.90
2022-10-19T06:46:06.555Z,6.63
2022-10-19T06:48:37.223Z,6.40
2022-10-19T06:51:12.108Z,4.93
2022-10-19T06:53:42.632Z,4.68
2022-10-19T06:56:13.777Z,5.32
2022-10-19T06:58:44.388Z,5.25
2022-10-19T07:01:15.031Z,5.90
2022-10-19T07:03:46.034Z,5.60
2022-10-19T07:06:19.178Z,4.88
2022-10-19T07:08:49.733Z,5.80
2022-10-19T07:11:22.857Z,4.72
2022-10-19T07:13:54.922Z,5.22
2022-10-19T07:16:25.544Z,5.43
2022-10-19T07:18:56.926Z,5.60
2022-10-19T07:21:30.164Z,8.45
2022-10-19T07:24:01.059Z,10.93
2022-10-19T07:26:33.419Z,12.68
2022-10-19T07:29:04.615Z,8.63
2022-10-19T07:31:36.094Z,8.63
2022-10-19T07:34:08.512Z,9.27
2022-10-19T07:36:45.190Z,13.20
2022-10-19T07:39:17.159Z,8.70
2022-10-19T07:41:48.108Z,8.05
2022-10-19T07:44:19.280Z,8.05
2022-10-19T07:46:50.534Z,6.53
2022-10-19T07:49:21.053Z,7.50
2022-10-19T07:51:56.314Z,7.30
2022-10-19T07:54:27.686Z,6.80
2022-10-19T07:56:58.265Z,5.13
2022-10-19T07:59:28.880Z,4.25
2022-10-19T08:02:02.603Z,5.60
2022-10-19T08:07:26.465Z,3.40
2022-10-19T08:09:57.092Z,3.55
2022-10-19T08:12:27.890Z,2.70
2022-10-19T08:14:58.532Z,3.35
2022-10-19T08:17:29.104Z,2.83
2022-10-19T08:19:59.621Z,2.55
2022-10-19T08:22:33.094Z,2.40
2022-10-19T08:25:03.937Z,2.25
2022-10-19T08:27:37.571Z,2.17
2022-10-19T08:30:08.871Z,2.35
2022-10-19T08:32:39.436Z,2.20
2022-10-19T08:35:11.048Z,2.13
2022-10-19T08:37:45.435Z,2.33
2022-10-19T08:40:23.931Z,2.50
2022-10-19T08:42:59.379Z,2.42
2022-10-19T08:45:51.130Z,2.85
2022-10-19T08:48:33.180Z,2.80
2022-10-19T08:51:04.461Z,2.55
2022-10-19T08:53:43.054Z,2.08
2022-10-19T08:56:50.040Z,2.40
2022-10-19T08:59:24.718Z,2.17
2022-10-19T09:01:58.594Z,2.20
2022-10-19T09:04:35.865Z,2.72
2022-10-19T09:07:23.414Z,2.00
2022-10-19T09:10:00.192Z,2.08
2022-10-19T09:12:46.484Z,2.22
2022-10-19T09:15:21.373Z,2.40
2022-10-19T09:17:51.901Z,2.05
2022-10-19T09:20:25.696Z,2.05
2022-10-19T09:23:06.807Z,2.13
2022-10-19T09:25:44.149Z,2.13
2022-10-19T09:28:36.477Z,2.20
2022-10-19T09:31:13.999Z,3.80
2022-10-19T09:33:47.255Z,3.95
2022-10-19T09:36:22.916Z,3.95
2022-10-19T09:38:58.237Z,3.63
2022-10-19T09:41:31.909Z,3.05
2022-10-19T09:44:03.123Z,2.70
2022-10-19T09:46:42.405Z,2.42
2022-10-19T09:49:13.078Z,2.60
2022-10-19T09:51:51.911Z,2.75
2022-10-19T09:54:38.166Z,2.55
2022-10-19T09:57:24.396Z,2.85
2022-10-19T09:59:55.541Z,3.40
2022-10-19T10:02:33.229Z,3.20
2022-10-19T10:05:09.400Z,2.83
2022-10-19T10:07:41.877Z,2.70
2022-10-19T10:10:14.759Z,2.03
2022-10-19T10:12:49.077Z,2.13
2022-10-19T10:15:24.518Z,2.20
2022-10-19T10:17:56.156Z,1.52
2022-10-19T10:20:32.458Z,2.10
2022-10-19T10:23:05.449Z,2.22
2022-10-19T10:25:38.149Z,2.20
2022-10-19T10:28:22.762Z,2.50
2022-10-19T10:30:58.549Z,2.03
2022-10-19T10:33:44.042Z,1.95
2022-10-19T10:36:16.295Z,2.10
2022-10-19T10:38:50.510Z,2.00
2022-10-19T10:41:25.015Z,1.90
2022-10-19T10:44:04.585Z,1.97
2022-10-19T10:46:38.449Z,2.10
2022-10-19T10:49:11.499Z,2.00
2022-10-19T10:51:50.574Z,1.80
2022-10-19T10:54:25.575Z,1.70
2022-10-19T10:57:09.504Z,1.90
2022-10-19T10:59:51.300Z,2.17
2022-10-19T11:02:32.898Z,1.67
2022-10-19T11:05:07.766Z,2.60
2022-10-19T11:07:39.526Z,2.10
2022-10-19T11:10:19.803Z,2.10
2022-10-19T11:12:57.086Z,2.00
2022-10-19T11:15:37.780Z,2.15
2022-10-19T11:18:18.843Z,1.70
2022-10-19T11:20:58.344Z,2.55
2022-10-19T11:23:40.817Z,2.20
2022-10-19T11:26:22.960Z,1.92
2022-10-19T11:29:05.786Z,2.03
2022-10-19T11:31:47.865Z,1.80
2022-10-19T11:34:37.334Z,2.03
2022-10-19T11:37:22.452Z,2.10
2022-10-19T11:40:04.109Z,3.17
2022-10-19T11:42:48.352Z,2.20
2022-10-19T11:45:35.381Z,2.17
2022-10-19T11:48:23.925Z,2.10
2022-10-19T11:51:16.925Z,2.35
2022-10-19T11:53:58.825Z,1.90
2022-10-19T11:56:58.181Z,2.20
2022-10-19T11:59:38.629Z,1.80
2022-10-19T12:02:31.177Z,2.20
2022-10-19T12:05:08.930Z,1.77
2022-10-19T12:07:56.647Z,1.80
2022-10-19T12:10:36.157Z,1.90
2022-10-19T12:13:09.153Z,2.08
2022-10-19T12:15:43.110Z,2.08
2022-10-19T12:18:19.409Z,1.90
2022-10-19T12:20:56.656Z,3.05
2022-10-19T12:23:33.338Z,1.88
2022-10-19T12:26:06.741Z,2.15
2022-10-19T12:28:39.923Z,1.90
2022-10-19T12:31:13.684Z,2.17
2022-10-19T12:33:52.688Z,1.80
2022-10-19T12:36:40.099Z,2.17
2022-10-19T12:39:17.249Z,2.00
2022-10-19T12:41:53.441Z,2.10
2022-10-19T12:44:38.166Z,2.90
2022-10-19T12:47:18.766Z,2.10
2022-10-19T12:49:51.905Z,1.98
2022-10-19T12:52:41.629Z,2.00
2022-10-19T12:55:34.893Z,1.65
2022-10-19T12:58:22.820Z,1.70
2022-10-19T13:01:02.692Z,2.03
2022-10-19T13:03:36.775Z,2.00
2022-10-19T13:06:14.476Z,2.17
2022-10-19T13:08:51.768Z,1.73
2022-10-19T13:11:23.561Z,1.88
2022-10-19T13:14:00.599Z,1.73
2022-10-19T13:17:09.743Z,3.00
2022-10-19T13:19:40.381Z,1.70
2022-10-19T13:22:30.431Z,1.90
2022-10-19T13:25:28.152Z,1.75
2022-10-19T13:28:03.247Z,1.80
2022-10-19T13:31:06.085Z,2.20
2022-10-19T13:33:49.661Z,1.92
2022-10-19T13:36:21.321Z,1.80
2022-10-19T13:39:08.777Z,1.58
2022-10-19T13:41:57.322Z,1.80
2022-10-19T13:44:31.212Z,1.90
2022-10-19T13:47:20.658Z,2.00
2022-10-19T13:50:06.028Z,1.98
2022-10-19T13:52:59.581Z,1.50
2022-10-19T13:55:53.553Z,6.55
2022-10-19T13:58:42.405Z,2.65
2022-10-19T14:01:25.905Z,4.25
2022-10-19T14:04:09.832Z,11.27
2022-10-19T14:06:46.844Z,6.93
2022-10-19T14:09:43.668Z,5.53
2022-10-19T14:12:22.764Z,19.58
2022-10-19T14:14:56.396Z,21.65
2022-10-19T14:17:30.358Z,5.45
2022-10-19T14:20:02.254Z,22.20
2022-10-19T14:22:36.366Z,25.15
2022-10-19T14:25:10.351Z,10.35
2022-10-19T14:27:41.863Z,3.28
2022-10-19T14:30:25.628Z,5.63
2022-10-19T14:33:01.002Z,6.80
2022-10-19T14:35:36.586Z,6.72
2022-10-19T14:38:09.506Z,9.47
2022-10-19T14:40:43.236Z,6.38
2022-10-19T14:43:23.842Z,6.55
2022-10-19T14:46:13.567Z,7.47
2022-10-19T14:48:45.980Z,6.07
2022-10-19T14:51:33.963Z,7.30
2022-10-19T14:54:08.368Z,8.25
2022-10-19T14:56:46.190Z,6.03
2022-10-19T14:59:27.926Z,5.22
2022-10-19T15:02:04.188Z,4.25
2022-10-19T15:04:37.734Z,11.07
2022-10-19T15:07:19.911Z,5.28
2022-10-19T15:09:56.593Z,7.78
2022-10-19T15:12:33.370Z,5.95
2022-10-19T15:15:04.283Z,6.93
2022-10-19T15:17:39.103Z,11.82
2022-10-19T15:20:26.366Z,40.35
2022-10-19T15:22:57.372Z,10.55
2022-10-19T15:25:37.228Z,5.00
2022-10-19T15:28:23.510Z,7.47
2022-10-19T15:31:04.999Z,7.60
2022-10-19T15:33:43.386Z,5.38
2022-10-19T15:36:17.596Z,7.40
2022-10-19T15:38:50.073Z,9.73
2022-10-19T15:41:23.942Z,9.95
2022-10-19T15:43:56.942Z,12.55
2022-10-19T15:46:31.887Z,11.82
2022-10-19T15:49:27.632Z,11.43
2022-10-19T15:51:58.127Z,8.43
2022-10-19T15:54:28.757Z,8.77
2022-10-19T15:56:59.567Z,9.43
2022-10-19T15:59:30.203Z,10.50
2022-10-19T16:02:00.817Z,8.88
2022-10-19T16:04:34.249Z,10.68
2022-10-19T16:07:05.328Z,9.20
2022-10-19T16:09:36.187Z,9.60
2022-10-19T16:12:06.933Z,9.88
2022-10-19T16:14:37.784Z,10.30
2022-10-19T16:17:08.496Z,9.88
2022-10-19T16:19:41.846Z,11.98
2022-10-19T16:22:12.819Z,11.90
2022-10-19T16:24:43.965Z,11.23
2022-10-19T16:27:16.602Z,11.50
2022-10-19T16:29:47.608Z,11.68
2022-10-19T16:32:18.267Z,11.45
2022-10-19T16:34:51.589Z,10.68
2022-10-19T16:37:22.223Z,10.57
2022-10-19T16:39:52.793Z,9.90
2022-10-19T16:42:25.667Z,12.30
2022-10-19T16:44:58.853Z,13.00
2022-10-19T16:47:29.530Z,12.20
2022-10-19T16:50:04.586Z,13.63
2022-10-19T16:52:35.736Z,12.43
2022-10-19T16:55:06.612Z,13.20
2022-10-19T16:57:37.337Z,14.52
2022-10-19T17:00:10.381Z,13.57
2022-10-19T17:02:44.346Z,12.85
2022-10-19T17:05:19.766Z,14.68
2022-10-19T17:07:50.318Z,13.82
2022-10-19T17:10:21.915Z,15.15
2022-10-19T17:12:52.544Z,14.65
2022-10-19T17:15:42.019Z,13.63
2022-10-19T17:18:13.394Z,13.57
2022-10-19T17:20:46.540Z,14.15
2022-10-19T17:23:17.098Z,14.15
2022-10-19T17:25:50.905Z,12.50
2022-10-19T17:28:24.131Z,13.00
2022-10-19T17:30:58.030Z,13.00
2022-10-19T17:33:30.286Z,12.27
2022-10-19T17:36:10.400Z,12.63
2022-10-19T17:38:41.483Z,11.43
2022-10-19T17:41:14.600Z,12.05
2022-10-19T17:43:47.080Z,12.35
2022-10-19T17:46:20.069Z,11.80
2022-10-19T17:48:50.751Z,12.20
2022-10-19T17:51:27.295Z,11.95
2022-10-19T17:53:59.683Z,10.73
2022-10-19T17:56:30.909Z,13.70
2022-10-19T17:59:03.243Z,10.50
2022-10-19T18:01:34.639Z,11.80
2022-10-19T18:04:05.138Z,11.73
2022-10-19T18:06:39.932Z,12.70
2022-10-19T18:09:13.812Z,13.57
2022-10-19T18:11:47.398Z,12.18
2022-10-19T18:14:18.224Z,10.50
2022-10-19T18:16:50.531Z,10.10
2022-10-19T18:19:21.344Z,8.85
2022-10-19T18:21:54.551Z,9.40
2022-10-19T18:24:25.457Z,10.85
2022-10-19T18:26:56.298Z,15.02
2022-10-19T18:29:28.750Z,12.00
2022-10-19T18:31:59.326Z,11.10
2022-10-19T18:34:30.252Z,10.73
2022-10-19T18:37:03.406Z,10.32
2022-10-19T18:39:33.973Z,11.27
2022-10-19T18:42:04.912Z,10.65
2022-10-19T18:44:35.494Z,10.63
2022-10-19T18:47:06.308Z,12.52
2022-10-19T18:49:37.269Z,12.80
2022-10-19T18:52:10.453Z,13.85
2022-10-19T18:54:41.195Z,18.10
2022-10-19T18:57:11.844Z,21.10
2022-10-19T18:59:42.482Z,19.55
2022-10-19T19:02:22.366Z,14.48
2022-10-19T19:04:58.986Z,13.23
2022-10-19T19:07:32.232Z,13.00
2022-10-19T19:10:03.007Z,13.40
2022-10-19T19:12:34.425Z,15.20
2022-10-19T19:15:08.319Z,12.85
2022-10-19T19:17:39.234Z,12.70
2022-10-19T19:20:11.061Z,12.07
2022-10-19T19:22:44.269Z,12.90
2022-10-19T19:25:15.077Z,12.07
2022-10-19T19:27:45.812Z,11.77
2022-10-19T19:30:16.701Z,12.80
2022-10-19T19:32:47.400Z,12.95
2022-10-19T19:35:18.694Z,11.95
2022-10-19T19:37:51.969Z,11.93
2022-10-19T19:40:22.530Z,12.80
2022-10-19T19:42:53.100Z,13.88
2022-10-19T19:45:23.652Z,15.88
2022-10-19T19:47:57.189Z,12.25
2022-10-19T19:50:27.782Z,10.98
2022-10-19T19:53:02.152Z,10.18
2022-10-19T19:55:38.859Z,11.93
2022-10-19T19:58:09.917Z,10.25
2022-10-19T20:00:42.555Z,10.52
2022-10-19T20:03:13.884Z,10.10
2022-10-19T20:05:44.453Z,10.75
2022-10-19T20:08:17.627Z,10.70
2022-10-19T20:10:48.156Z,10.20
2022-10-19T20:13:18.722Z,10.00
2022-10-19T20:15:49.270Z,10.95
2022-10-19T20:18:19.831Z,10.77
2022-10-19T20:20:50.326Z,10.43
2022-10-19T20:23:23.417Z,9.55
2022-10-19T20:25:53.941Z,9.32
2022-10-19T20:28:24.490Z,10.68
2022-10-19T20:31:02.980Z,10.55
2022-10-19T20:33:34.741Z,9.60
2022-10-19T20:36:07.105Z,9.38
2022-10-19T20:38:42.072Z,10.13
2022-10-19T20:41:13.169Z,8.40
2022-10-19T20:43:43.655Z,9.70
2022-10-19T20:46:16.176Z,10.15
2022-10-19T20:48:47.237Z,9.75
2022-10-19T20:51:20.056Z,9.23
2022-10-19T20:53:54.344Z,9.07
2022-10-19T20:56:27.725Z,9.05
2022-10-19T20:58:59.310Z,8.10
2022-10-19T21:01:32.060Z,7.95
2022-10-19T21:04:05.223Z,7.57
2022-10-19T21:06:38.269Z,7.57
2022-10-19T21:09:15.872Z,8.25
2022-10-19T21:11:50.407Z,7.60
2022-10-19T21:14:27.140Z,6.88
2022-10-19T21:17:01.455Z,6.32
2022-10-19T21:19:35.445Z,6.10
2022-10-19T21:22:06.536Z,6.85
2022-10-19T21:24:40.098Z,5.72
2022-10-19T21:27:12.459Z,6.60
2022-10-19T21:29:43.171Z,6.82
2022-10-19T21:32:13.709Z,7.22
2022-10-19T21:34:44.327Z,6.55
2022-10-19T21:37:15.078Z,7.10
2022-10-19T21:39:48.228Z,6.40
2022-10-19T21:42:18.748Z,6.43
2022-10-19T21:44:51.387Z,7.07
2022-10-19T21:47:24.520Z,6.80
2022-10-19T21:49:55.188Z,7.07
2022-10-19T21:52:25.801Z,6.65
2022-10-19T21:54:59.588Z,6.90
2022-10-19T21:57:30.296Z,6.60
2022-10-19T22:00:00.846Z,6.57
2022-10-19T22:02:31.437Z,6.60
2022-10-19T22:05:02.000Z,7.65
2022-10-19T22:07:33.356Z,6.47
2022-10-19T22:10:07.339Z,7.55
2022-10-19T22:12:38.397Z,6.82
2022-10-19T22:15:10.232Z,7.43
2022-10-19T22:17:40.808Z,6.90
2022-10-19T22:20:12.550Z,7.28
2022-10-19T22:22:43.055Z,7.60
2022-10-19T22:25:16.251Z,8.63
2022-10-19T22:27:46.731Z,8.30
2022-10-19T22:30:17.356Z,7.88
2022-10-19T22:32:47.920Z,8.07
2022-10-19T22:35:18.653Z,9.35
2022-10-19T22:37:49.179Z,8.57
2022-10-19T22:40:22.371Z,8.45
2022-10-19T22:42:52.865Z,8.90
2022-10-19T22:45:23.375Z,11.55
2022-10-19T22:47:53.878Z,10.00
2022-10-19T22:50:24.430Z,9.48
2022-10-19T22:52:54.925Z,9.98
2022-10-19T22:55:28.207Z,10.88
2022-10-19T22:57:58.752Z,9.80
2022-10-19T23:00:29.571Z,10.75
2022-10-19T23:03:00.141Z,11.57
2022-10-19T23:05:30.696Z,15.32
2022-10-19T23:08:01.261Z,17.00
2022-10-19T23:10:34.407Z,13.60
2022-10-19T23:13:04.879Z,14.65
2022-10-19T23:15:35.407Z,16.33
2022-10-19T23:18:05.970Z,17.77
2022-10-19T23:20:36.513Z,19.05
2022-10-19T23:23:07.096Z,17.55
2022-10-19T23:25:40.198Z,15.15
2022-10-19T23:28:10.695Z,18.60
2022-10-19T23:30:41.205Z,18.02
2022-10-19T23:33:11.750Z,19.13
2022-10-19T23:35:42.212Z,19.63
2022-10-19T23:38:12.669Z,22.42
2022-10-19T23:40:46.079Z,22.20
2022-10-19T23:43:16.590Z,20.10
2022-10-19T23:45:48.685Z,24.60
2022-10-19T23:48:19.171Z,22.02
2022-10-19T23:50:49.659Z,18.80
2022-10-19T23:53:20.154Z,22.63
2022-10-19T23:55:53.341Z,20.95
2022-10-19T23:58:23.834Z,19.52
